Time;durP1;ratioP1;P1;durP2;ratioP2;P2;SDS_P1;SDS_P2;PMS_P1;PMS_P2;Temp;Humidity;BMP_temperature;BMP_pressure;BME280_temperature;BME280_humidity;BME280_pressure;Samples;Min_cycle;Max_cycle;Signal;HPM_P1;HPM_P2
2023/04/25 00:02:22;;;;;;;9.23;4.60;;;7.40;1.00;;;;;;5075489;28;20432;-75
2023/04/25 00:04:49;;;;;;;6.87;4.20;;;7.40;1.00;;;;;;5075895;28;20495;-77
2023/04/25 00:07:15;;;;;;;5.87;3.53;;;7.30;1.00;;;;;;5076642;28;20427;-77
2023/04/25 00:09:41;;;;;;;17.97;4.30;;;7.30;1.00;;;;;;5076425;28;20452;-76
2023/04/25 00:12:07;;;;;;;12.73;4.30;;;7.40;1.00;;;;;;5075823;28;20520;-76
2023/04/25 00:14:35;;;;;;;13.37;4.23;;;7.40;1.00;;;;;;5077180;28;20836;-75
2023/04/25 00:17:02;;;;;;;8.03;3.77;;;7.40;1.00;;;;;;5076171;28;20170;-75
2023/04/25 00:19:28;;;;;;;15.63;4.77;;;7.40;1.00;;;;;;5077092;28;20455;-76
2023/04/25 00:21:57;;;;;;;15.33;3.47;;;7.40;1.00;;;;;;5087306;28;20415;-76
2023/04/25 00:24:23;;;;;;;14.23;4.07;;;7.40;1.00;;;;;;5076364;28;20436;-76
2023/04/25 00:26:48;;;;;;;7.80;4.07;;;7.40;1.00;;;;;;5083429;28;20950;-75
2023/04/25 00:29:15;;;;;;;6.50;3.20;;;7.30;1.00;;;;;;5096403;28;20255;-75
2023/04/25 00:31:40;;;;;;;11.97;5.30;;;7.30;1.00;;;;;;5087977;28;20177;-75
2023/04/25 00:34:06;;;;;;;9.40;3.83;;;7.30;1.00;;;;;;5076890;28;20404;-75
2023/04/25 00:36:32;;;;;;;12.70;4.47;;;7.30;1.00;;;;;;5076316;28;20244;-75
2023/04/25 00:38:58;;;;;;;13.50;5.90;;;7.30;1.00;;;;;;5059394;28;20428;-75
2023/04/25 00:41:26;;;;;;;12.63;4.23;;;7.30;1.00;;;;;;5079867;28;20181;-75
2023/04/25 00:43:53;;;;;;;10.37;4.40;;;7.30;1.00;;;;;;5097266;28;20190;-75
2023/04/25 00:46:19;;;;;;;9.13;3.50;;;7.30;1.00;;;;;;5093945;28;20407;-74
2023/04/25 00:48:45;;;;;;;11.17;4.60;;;7.30;1.00;;;;;;5075398;28;20455;-74
2023/04/25 00:51:16;;;;;;;15.50;4.50;;;7.20;1.00;;;;;;5075629;28;20809;-75
2023/04/25 00:53:42;;;;;;;11.60;4.43;;;7.20;1.00;;;;;;5085384;28;20197;-74
2023/04/25 00:56:08;;;;;;;23.87;5.83;;;7.10;1.00;;;;;;5076215;28;20407;-72
2023/04/25 00:58:34;;;;;;;19.67;5.60;;;7.10;1.00;;;;;;5076374;28;20174;-74
2023/04/25 01:01:01;;;;;;;12.90;4.80;;;7.10;1.00;;;;;;5075374;28;20400;-74
2023/04/25 01:03:28;;;;;;;11.70;5.60;;;7.00;1.00;;;;;;5094172;28;20439;-74
2023/04/25 01:05:54;;;;;;;19.23;5.50;;;7.00;1.00;;;;;;5082973;28;20774;-73
2023/04/25 01:08:23;;;;;;;9.77;5.20;;;7.00;1.00;;;;;;5092786;28;20941;-73
2023/04/25 01:10:49;;;;;;;15.17;5.60;;;7.00;1.00;;;;;;5086684;28;20428;-71
2023/04/25 01:13:14;;;;;;;12.03;5.17;;;7.00;1.00;;;;;;5076224;28;20409;-73
2023/04/25 01:15:40;;;;;;;9.47;5.37;;;7.00;1.00;;;;;;5082788;28;20177;-73
2023/04/25 01:18:06;;;;;;;16.50;5.43;;;7.00;1.00;;;;;;5096286;28;20169;-73
2023/04/25 01:20:33;;;;;;;7.30;4.33;;;7.00;1.00;;;;;;5076559;28;20170;-73
2023/04/25 01:23:00;;;;;;;16.40;5.03;;;7.00;1.00;;;;;;5075469;28;20428;-73
2023/04/25 01:25:26;;;;;;;18.17;6.90;;;7.00;1.00;;;;;;5093771;28;20419;-72
2023/04/25 01:27:52;;;;;;;18.63;5.13;;;7.00;1.00;;;;;;5096237;28;20451;-71
2023/04/25 01:33:40;;;;;;;14.10;4.50;;;6.90;1.00;;;;;;5078018;28;20486;-72
2023/04/25 01:36:06;;;;;;;17.37;4.53;;;6.90;1.00;;;;;;5077797;28;20464;-71
2023/04/25 01:38:32;;;;;;;13.30;4.60;;;6.90;1.00;;;;;;5075753;28;20404;-72
2023/04/25 01:40:58;;;;;;;7.90;4.13;;;6.90;1.00;;;;;;5073902;28;20759;-71
2023/04/25 01:43:24;;;;;;;7.70;4.37;;;6.90;1.00;;;;;;5075825;28;20463;-71
2023/04/25 01:45:50;;;;;;;10.93;4.70;;;6.90;1.00;;;;;;5095448;28;20689;-71
2023/04/25 01:48:16;;;;;;;13.60;4.33;;;6.90;1.00;;;;;;5084588;28;20468;-72
2023/04/25 01:50:42;;;;;;;4.27;3.47;;;6.90;1.00;;;;;;5091901;28;20166;-70
2023/04/25 01:53:10;;;;;;;14.43;4.80;;;6.80;99.90;;;;;;5095516;28;20511;-68
2023/04/25 01:55:36;;;;;;;13.40;4.70;;;6.70;99.90;;;;;;5078699;28;20466;-71
2023/04/25 01:58:03;;;;;;;7.70;5.07;;;6.60;99.90;;;;;;5075261;28;20401;-71
2023/04/25 02:00:29;;;;;;;13.67;4.50;;;6.60;99.90;;;;;;5077936;28;20574;-69
2023/04/25 02:02:58;;;;;;;6.73;3.47;;;6.50;99.90;;;;;;5074208;28;20456;-69
2023/04/25 02:05:24;;;;;;;14.03;4.10;;;6.40;99.90;;;;;;5087710;28;20185;-68
2023/04/25 02:07:49;;;;;;;9.27;4.57;;;6.40;99.90;;;;;;5095388;28;20496;-69
2023/04/25 02:13:36;;;;;;;6.93;3.87;;;6.30;99.90;;;;;;5074833;28;20216;-71
2023/04/25 02:16:02;;;;;;;11.43;4.10;;;6.40;99.90;;;;;;5071401;28;20833;-71
2023/04/25 02:18:28;;;;;;;11.50;4.00;;;6.40;99.90;;;;;;5054067;28;20245;-68
2023/04/25 02:20:54;;;;;;;12.43;4.70;;;6.40;99.90;;;;;;5084201;28;20186;-68
2023/04/25 02:23:19;;;;;;;24.10;5.70;;;6.30;99.90;;;;;;5094896;28;20238;-71
2023/04/25 02:25:45;;;;;;;19.57;5.37;;;6.40;99.90;;;;;;5080457;28;20923;-68
2023/04/25 02:28:11;;;;;;;7.13;4.50;;;6.30;99.90;;;;;;5074064;28;20197;-68
2023/04/25 02:30:37;;;;;;;11.87;5.27;;;6.30;99.90;;;;;;5073277;28;20178;-68
2023/04/25 02:33:03;;;;;;;23.73;5.00;;;6.30;99.90;;;;;;5074234;28;20495;-68
2023/04/25 02:35:28;;;;;;;10.50;4.93;;;6.20;99.90;;;;;;5073982;28;20188;-68
2023/04/25 02:37:54;;;;;;;13.70;5.33;;;6.20;99.90;;;;;;5086441;28;20180;-67
2023/04/25 02:40:20;;;;;;;16.00;5.13;;;6.20;99.90;;;;;;5077441;28;20812;-72
2023/04/25 02:42:45;;;;;;;12.80;4.70;;;6.20;99.90;;;;;;5074679;28;20190;-70
2023/04/25 02:45:11;;;;;;;20.77;6.00;;;6.10;99.90;;;;;;5075262;28;20168;-70
2023/04/25 02:47:37;;;;;;;13.30;6.10;;;6.20;99.90;;;;;;5074826;28;20184;-69
2023/04/25 02:50:03;;;;;;;7.67;4.00;;;6.30;99.90;;;;;;5073929;28;20164;-70
2023/04/25 02:52:29;;;;;;;13.90;4.33;;;6.20;99.90;;;;;;5080783;28;20195;-71
2023/04/25 02:54:55;;;;;;;15.97;4.57;;;6.20;99.90;;;;;;5094128;28;20463;-70
2023/04/25 02:57:21;;;;;;;17.60;4.27;;;6.30;99.90;;;;;;5079923;28;20452;-71
2023/04/25 02:59:46;;;;;;;9.00;4.87;;;6.30;99.90;;;;;;5074247;28;20178;-70
2023/04/25 03:02:12;;;;;;;11.07;4.30;;;6.30;99.90;;;;;;5076429;28;20633;-70
2023/04/25 03:04:38;;;;;;;9.90;4.97;;;6.30;99.90;;;;;;5094297;28;20185;-71
2023/04/25 03:07:04;;;;;;;7.50;4.07;;;6.30;99.90;;;;;;5092341;28;20248;-71
2023/04/25 03:09:29;;;;;;;11.00;4.73;;;6.30;99.90;;;;;;5073825;28;20455;-71
2023/04/25 03:12:25;;;;;;;12.33;4.17;;;6.30;99.90;;;;;;5075585;28;20268;-70
2023/04/25 03:16:03;;;;;;;6.33;4.97;;;6.20;99.90;;;;;;5030771;28;20311;-69
2023/04/25 03:19:25;;;;;;;13.23;4.83;;;6.10;99.90;;;;;;5031041;28;20472;-70
2023/04/25 03:22:54;;;;;;;21.30;4.73;;;6.10;99.90;;;;;;5004322;28;20449;-70
2023/04/25 03:26:27;;;;;;;21.57;5.37;;;6.10;99.90;;;;;;5029640;28;20449;-69
2023/04/25 03:30:25;;;;;;;15.17;5.03;;;6.10;99.90;;;;;;4972952;28;21063;-70
2023/04/25 03:34:04;;;;;;;16.10;5.00;;;6.00;99.90;;;;;;4877251;29;20437;-70
2023/04/25 03:40:44;;;;;;;11.60;5.00;;;6.10;99.90;;;;;;4840654;29;20422;-70
2023/04/25 03:46:51;;;;;;;12.10;5.40;;;6.10;99.90;;;;;;4839623;29;20919;-68
2023/04/25 03:49:17;;;;;;;9.63;4.83;;;6.10;99.90;;;;;;4840724;29;20545;-70
2023/04/25 03:51:43;;;;;;;13.33;3.87;;;6.10;99.90;;;;;;4897579;28;20200;-69
2023/04/25 03:54:08;;;;;;;11.30;4.90;;;6.10;99.90;;;;;;5071992;28;20185;-69
2023/04/25 03:56:34;;;;;;;15.27;4.97;;;6.10;99.90;;;;;;5090237;28;20169;-70
2023/04/25 03:59:00;;;;;;;19.20;4.70;;;6.10;99.90;;;;;;5093529;28;20744;-70
2023/04/25 04:01:26;;;;;;;14.87;4.30;;;6.10;99.90;;;;;;5077019;28;20656;-70
2023/04/25 04:03:51;;;;;;;10.77;4.80;;;6.10;98.10;;;;;;5073686;28;20570;-69
2023/04/25 04:06:17;;;;;;;17.27;5.77;;;6.10;91.10;;;;;;5086464;28;20178;-70
2023/04/25 04:08:43;;;;;;;10.50;4.50;;;6.10;91.10;;;;;;5082120;28;20212;-70
2023/04/25 04:11:09;;;;;;;20.23;5.10;;;6.10;91.00;;;;;;5071529;28;20452;-69
2023/04/25 04:13:35;;;;;;;15.57;4.90;;;6.10;87.10;;;;;;5072990;28;20182;-70
2023/04/25 04:16:03;;;;;;;10.63;4.90;;;6.20;77.40;;;;;;5083102;28;20946;-70
2023/04/25 04:18:28;;;;;;;14.00;4.90;;;6.20;69.00;;;;;;5093274;28;20256;-70
2023/04/25 04:20:54;;;;;;;19.03;6.10;;;6.10;44.50;;;;;;5082614;28;20531;-71
2023/04/25 04:23:20;;;;;;;8.93;4.80;;;6.10;45.20;;;;;;5074137;28;20183;-68
2023/04/25 04:25:46;;;;;;;10.23;4.30;;;6.10;33.80;;;;;;5072941;28;20422;-70
2023/04/25 04:28:13;;;;;;;5.33;3.80;;;6.10;33.60;;;;;;5072443;28;20440;-69
2023/04/25 04:30:39;;;;;;;10.90;4.77;;;6.10;28.50;;;;;;5077276;28;20419;-69
2023/04/25 04:33:07;;;;;;;6.53;3.60;;;6.10;24.30;;;;;;5092911;28;20420;-69
2023/04/25 04:35:33;;;;;;;14.47;4.80;;;6.10;19.90;;;;;;5088122;28;20439;-69
2023/04/25 04:37:58;;;;;;;13.80;4.67;;;6.10;21.80;;;;;;5073072;28;20456;-69
2023/04/25 04:40:25;;;;;;;8.53;3.40;;;6.20;21.40;;;;;;5073130;28;20404;-70
2023/04/25 04:42:51;;;;;;;10.90;4.20;;;6.20;16.40;;;;;;5092911;28;20193;-69
2023/04/25 04:45:17;;;;;;;13.13;5.30;;;6.20;9.00;;;;;;5088249;28;20416;-70
2023/04/25 04:47:46;;;;;;;13.20;4.20;;;6.10;1.00;;;;;;5071537;28;20471;-71
2023/04/25 04:50:11;;;;;;;6.20;3.97;;;6.20;1.00;;;;;;5075036;28;20451;-70
2023/04/25 04:52:38;;;;;;;7.27;3.27;;;6.20;1.00;;;;;;5096905;28;20516;-69
2023/04/25 04:55:05;;;;;;;17.53;4.30;;;6.20;1.00;;;;;;5094936;28;20177;-69
2023/04/25 04:57:32;;;;;;;14.73;4.50;;;6.20;1.00;;;;;;5076615;28;20430;-69
2023/04/25 04:59:58;;;;;;;21.07;4.20;;;6.30;1.00;;;;;;5075642;28;20440;-69
2023/04/25 05:02:24;;;;;;;13.07;4.00;;;6.30;1.00;;;;;;5075279;28;20524;-69
2023/04/25 05:04:51;;;;;;;8.17;4.37;;;6.30;1.00;;;;;;5076184;28;20264;-69
2023/04/25 05:07:17;;;;;;;15.00;4.47;;;6.30;1.00;;;;;;5076294;28;20170;-69
2023/04/25 05:09:42;;;;;;;12.27;4.37;;;6.30;1.00;;;;;;5084682;28;20807;-69
2023/04/25 05:12:08;;;;;;;8.33;3.70;;;6.30;1.00;;;;;;5096109;28;20840;-70
2023/04/25 05:14:34;;;;;;;8.00;4.20;;;6.40;1.00;;;;;;5088813;28;20198;-70
2023/04/25 05:17:00;;;;;;;10.27;3.87;;;6.40;1.00;;;;;;5075571;28;20182;-69
2023/04/25 05:19:26;;;;;;;9.47;3.57;;;6.30;1.00;;;;;;5076133;28;20738;-70
2023/04/25 05:21:52;;;;;;;12.70;4.17;;;6.30;1.00;;;;;;5074987;28;20404;-70
2023/04/25 05:24:18;;;;;;;16.20;4.90;;;6.30;1.00;;;;;;5078947;28;20657;-70
2023/04/25 05:26:43;;;;;;;11.77;3.30;;;6.40;1.00;;;;;;5096292;28;20407;-70
2023/04/25 05:29:09;;;;;;;12.83;3.90;;;6.40;1.00;;;;;;5093568;28;20249;-70
2023/04/25 05:31:36;;;;;;;11.40;3.40;;;6.40;1.00;;;;;;5095050;28;20645;-69
2023/04/25 05:34:02;;;;;;;16.03;3.90;;;6.40;1.00;;;;;;5095258;28;20206;-69
2023/04/25 05:36:28;;;;;;;11.20;4.00;;;6.40;1.00;;;;;;5075645;28;20458;-69
2023/04/25 05:38:54;;;;;;;8.33;4.27;;;6.40;1.00;;;;;;5075589;28;20742;-69
2023/04/25 05:41:20;;;;;;;7.60;3.93;;;6.40;1.00;;;;;;5074687;28;20212;-71
2023/04/25 05:43:46;;;;;;;21.27;4.57;;;6.50;1.00;;;;;;5073984;28;20190;-70
2023/04/25 05:46:13;;;;;;;20.43;4.43;;;6.60;1.00;;;;;;5075535;28;20429;-71
2023/04/25 05:48:39;;;;;;;9.63;3.90;;;6.60;1.00;;;;;;5075465;28;20446;-70
2023/04/25 05:51:05;;;;;;;7.70;5.00;;;6.50;1.00;;;;;;5080119;28;20944;-69
2023/04/25 05:53:30;;;;;;;24.00;4.63;;;6.50;1.00;;;;;;5071951;28;20442;-71
2023/04/25 05:55:56;;;;;;;11.90;4.80;;;6.50;1.00;;;;;;5074836;28;20432;-69
2023/04/25 05:58:22;;;;;;;9.63;3.93;;;6.60;1.00;;;;;;5077986;28;20239;-71
2023/04/25 06:00:48;;;;;;;8.83;4.63;;;6.70;1.00;;;;;;5076777;28;20220;-69
2023/04/25 06:03:16;;;;;;;6.07;3.73;;;6.80;1.00;;;;;;5075611;28;20197;-69
2023/04/25 06:05:42;;;;;;;7.40;3.60;;;6.80;1.00;;;;;;5081181;28;20540;-68
2023/04/25 06:08:09;;;;;;;8.27;3.67;;;6.80;1.00;;;;;;5074097;28;20817;-70
2023/04/25 06:10:35;;;;;;;17.70;4.00;;;6.80;1.00;;;;;;5074104;28;20409;-69
2023/04/25 06:13:01;;;;;;;13.33;4.40;;;6.80;1.00;;;;;;5074813;28;20484;-70
2023/04/25 06:15:27;;;;;;;6.70;3.40;;;6.80;1.00;;;;;;5074940;28;20531;-70
2023/04/25 06:17:52;;;;;;;4.00;3.30;;;6.80;1.00;;;;;;5074111;28;20166;-70
2023/04/25 06:20:22;;;;;;;16.83;5.03;;;6.90;1.00;;;;;;5073806;28;20167;-69
2023/04/25 06:22:49;;;;;;;9.47;3.77;;;6.90;1.00;;;;;;5074962;28;20194;-69
2023/04/25 06:25:15;;;;;;;5.00;3.40;;;7.00;1.00;;;;;;5083179;28;20423;-69
2023/04/25 06:27:40;;;;;;;10.43;4.13;;;7.00;1.00;;;;;;5078262;28;20412;-69
2023/04/25 06:30:06;;;;;;;13.57;4.03;;;7.00;1.00;;;;;;5074135;28;20166;-70
2023/04/25 06:32:34;;;;;;;12.60;3.93;;;7.00;1.00;;;;;;5074491;28;20197;-71
2023/04/25 06:35:00;;;;;;;9.97;4.73;;;7.00;1.00;;;;;;5094813;28;20384;-70
2023/04/25 06:37:25;;;;;;;9.50;4.13;;;7.10;1.00;;;;;;5083901;28;20954;-69
2023/04/25 06:39:51;;;;;;;10.10;3.63;;;7.10;1.00;;;;;;5094496;28;20472;-69
2023/04/25 06:42:17;;;;;;;12.33;3.93;;;7.20;1.00;;;;;;5086840;28;20237;-70
2023/04/25 06:44:42;;;;;;;15.40;4.03;;;7.30;1.00;;;;;;5081382;28;20638;-70
2023/04/25 06:47:08;;;;;;;8.97;3.83;;;7.40;1.00;;;;;;5089480;28;20199;-69
2023/04/25 06:49:34;;;;;;;6.93;3.50;;;7.40;1.00;;;;;;5072749;28;20205;-70
2023/04/25 06:51:59;;;;;;;14.70;3.73;;;7.30;1.00;;;;;;5092096;28;20595;-69
2023/04/25 06:54:27;;;;;;;16.93;4.33;;;7.40;1.00;;;;;;5094518;28;20158;-70
2023/04/25 06:56:53;;;;;;;10.57;3.93;;;7.30;1.00;;;;;;5094239;28;20189;-70
2023/04/25 06:59:19;;;;;;;16.87;3.90;;;7.30;1.00;;;;;;5093659;28;20402;-69
2023/04/25 07:01:45;;;;;;;9.00;3.97;;;7.30;1.00;;;;;;5093452;28;20391;-70
2023/04/25 07:04:11;;;;;;;15.13;5.13;;;7.30;1.00;;;;;;5087197;28;20178;-70
2023/04/25 07:06:42;;;;;;;13.63;4.57;;;7.30;1.00;;;;;;5074234;28;20461;-69
2023/04/25 07:09:08;;;;;;;19.93;4.63;;;7.30;1.00;;;;;;5073735;28;20190;-70
2023/04/25 07:11:34;;;;;;;12.67;4.60;;;7.40;1.00;;;;;;5072726;28;20419;-69
2023/04/25 07:13:59;;;;;;;11.47;4.20;;;7.30;1.00;;;;;;5073383;28;21058;-70
2023/04/25 07:16:25;;;;;;;10.07;3.57;;;7.40;1.00;;;;;;5073143;28;20192;-69
2023/04/25 07:18:51;;;;;;;4.13;3.10;;;7.40;1.00;;;;;;5082995;28;20182;-69
2023/04/25 07:21:16;;;;;;;6.07;3.00;;;7.50;1.00;;;;;;5093847;28;20166;-69
2023/04/25 07:23:42;;;;;;;15.43;3.87;;;7.50;1.00;;;;;;5085177;28;20862;-69
2023/04/25 07:26:08;;;;;;;9.87;3.90;;;7.60;1.00;;;;;;5073420;28;20177;-70
2023/04/25 07:28:33;;;;;;;19.30;3.60;;;7.60;1.00;;;;;;5072701;28;20240;-70
2023/04/25 07:30:59;;;;;;;12.97;4.80;;;7.50;1.00;;;;;;5071993;28;20535;-70
2023/04/25 07:33:25;;;;;;;9.97;4.33;;;7.40;1.00;;;;;;5073503;28;20311;-70
2023/04/25 07:35:51;;;;;;;9.03;3.67;;;7.40;1.00;;;;;;5073563;28;20159;-70
2023/04/25 07:38:17;;;;;;;10.33;3.13;;;7.40;1.00;;;;;;5073624;28;20193;-70
2023/04/25 07:40:43;;;;;;;10.67;3.40;;;7.50;1.00;;;;;;5054683;28;20440;-69
2023/04/25 07:43:08;;;;;;;17.67;4.53;;;7.40;1.00;;;;;;5073500;28;20190;-69
2023/04/25 07:45:34;;;;;;;6.60;3.20;;;7.40;1.00;;;;;;5072406;28;20220;-70
2023/04/25 07:48:00;;;;;;;8.47;3.33;;;7.40;1.00;;;;;;5073243;28;20167;-70
2023/04/25 07:50:25;;;;;;;12.83;3.77;;;7.50;1.00;;;;;;5071803;28;20554;-70
2023/04/25 07:52:51;;;;;;;9.13;3.80;;;7.60;1.00;;;;;;5073397;28;20199;-70
2023/04/25 07:55:17;;;;;;;13.57;3.40;;;7.70;1.00;;;;;;5072647;28;20162;-70
2023/04/25 07:57:42;;;;;;;6.13;2.97;;;7.80;1.00;;;;;;5073242;28;20170;-69
2023/04/25 08:00:09;;;;;;;10.43;4.00;;;7.80;1.00;;;;;;5072291;28;20542;-69
2023/04/25 08:02:36;;;;;;;8.83;3.83;;;7.90;1.00;;;;;;5073471;28;20546;-69
2023/04/25 08:05:02;;;;;;;7.77;3.20;;;7.80;1.00;;;;;;5073202;28;20511;-69
2023/04/25 08:07:27;;;;;;;11.67;3.10;;;8.00;1.00;;;;;;5073590;28;20397;-69
2023/04/25 08:09:54;;;;;;;8.40;4.53;;;8.20;1.00;;;;;;5073124;28;21067;-70
2023/04/25 08:12:20;;;;;;;7.80;3.67;;;8.40;1.00;;;;;;5072077;28;20654;-68
2023/04/25 08:14:46;;;;;;;7.27;2.97;;;8.40;1.00;;;;;;5060879;28;20445;-70
2023/04/25 08:17:11;;;;;;;5.93;3.53;;;8.40;1.00;;;;;;5053278;28;20174;-68
2023/04/25 08:19:37;;;;;;;8.03;4.37;;;8.30;1.00;;;;;;5053654;28;20217;-70
2023/04/25 08:22:03;;;;;;;9.57;4.00;;;8.30;1.00;;;;;;5052212;28;20686;-69
2023/04/25 08:24:29;;;;;;;8.87;2.80;;;8.20;1.00;;;;;;5053265;28;20176;-70
2023/04/25 08:26:54;;;;;;;7.13;3.40;;;8.20;1.00;;;;;;5057084;28;20169;-69
2023/04/25 08:29:20;;;;;;;6.93;3.13;;;8.20;1.00;;;;;;5065784;28;20282;-69
2023/04/25 08:31:46;;;;;;;12.20;3.00;;;8.20;1.00;;;;;;5075898;28;20471;-70
2023/04/25 08:34:12;;;;;;;6.77;3.60;;;8.10;1.00;;;;;;5076358;28;20237;-69
2023/04/25 08:36:39;;;;;;;11.50;3.07;;;8.20;1.00;;;;;;5076782;28;20209;-69
2023/04/25 08:39:05;;;;;;;4.40;2.90;;;8.30;1.00;;;;;;5076719;28;20194;-70
2023/04/25 08:41:31;;;;;;;8.67;3.70;;;8.40;1.00;;;;;;5075253;28;20424;-69
2023/04/25 08:44:00;;;;;;;9.27;2.90;;;8.40;1.00;;;;;;5074517;28;20525;-69
2023/04/25 08:46:26;;;;;;;7.20;2.60;;;8.50;1.00;;;;;;5078474;28;20582;-71
2023/04/25 08:48:56;;;;;;;7.93;3.23;;;8.80;1.00;;;;;;5077816;28;20487;-69
2023/04/25 08:51:27;;;;;;;16.50;3.53;;;8.90;1.00;;;;;;5075055;28;20405;-69
2023/04/25 08:53:53;;;;;;;7.03;2.87;;;9.00;1.00;;;;;;5075139;28;20419;-68
2023/04/25 08:56:22;;;;;;;6.87;3.70;;;8.80;1.00;;;;;;5074182;28;20420;-69
2023/04/25 08:58:54;;;;;;;11.60;3.13;;;8.80;1.00;;;;;;5071482;28;20441;-69
2023/04/25 09:01:20;;;;;;;8.90;3.20;;;8.80;1.00;;;;;;5059335;28;21013;-70
2023/04/25 09:03:47;;;;;;;5.93;2.60;;;8.70;1.00;;;;;;5080162;28;20529;-70
2023/04/25 09:06:13;;;;;;;5.43;1.93;;;8.80;1.00;;;;;;5075917;28;20408;-70
2023/04/25 09:08:40;;;;;;;2.90;2.20;;;8.80;1.00;;;;;;5073767;28;20467;-69
2023/04/25 09:11:07;;;;;;;9.40;2.93;;;8.80;1.00;;;;;;5074676;28;20539;-70
2023/04/25 09:13:32;;;;;;;7.83;3.13;;;8.70;1.00;;;;;;5076417;28;20427;-69
2023/04/25 09:15:59;;;;;;;18.73;2.97;;;8.70;1.00;;;;;;5067733;28;20491;-69
2023/04/25 09:18:26;;;;;;;7.50;2.67;;;8.80;1.00;;;;;;5055824;28;20174;-69
2023/04/25 09:20:56;;;;;;;7.83;3.23;;;8.90;1.00;;;;;;5054924;28;20410;-68
2023/04/25 09:23:23;;;;;;;5.13;2.63;;;9.10;1.00;;;;;;5056031;28;20423;-69
2023/04/25 09:25:53;;;;;;;14.27;3.80;;;9.10;1.00;;;;;;5064044;28;20781;-69
2023/04/25 09:28:27;;;;;;;8.70;3.10;;;9.00;1.00;;;;;;5075374;28;20469;-70
2023/04/25 09:30:59;;;;;;;7.10;3.03;;;9.00;1.00;;;;;;5076127;28;20415;-69
2023/04/25 09:33:30;;;;;;;6.73;2.83;;;9.20;1.00;;;;;;5075727;28;20443;-69
2023/04/25 09:36:03;;;;;;;12.00;2.83;;;9.50;1.00;;;;;;5075847;28;20909;-70
2023/04/25 09:38:40;;;;;;;12.00;2.90;;;9.70;1.00;;;;;;5069468;28;20781;-69
2023/04/25 09:41:05;;;;;;;8.87;3.97;;;9.80;1.00;;;;;;5060949;28;20434;-69
2023/04/25 09:43:31;;;;;;;8.10;3.80;;;9.60;1.00;;;;;;5066721;28;20522;-70
2023/04/25 09:45:59;;;;;;;11.97;2.73;;;9.60;1.00;;;;;;5074673;28;20219;-70
2023/04/25 09:48:26;;;;;;;7.50;3.17;;;9.80;1.00;;;;;;5060891;28;20193;-70
2023/04/25 09:51:13;;;;;;;8.70;3.10;;;9.90;1.00;;;;;;5073082;28;20431;-70
2023/04/25 09:53:46;;;;;;;7.27;3.30;;;9.90;1.00;;;;;;5075018;28;20403;-69
2023/04/25 09:56:12;;;;;;;8.03;2.90;;;9.80;1.00;;;;;;5075411;28;20375;-70
2023/04/25 09:58:39;;;;;;;6.20;3.43;;;9.70;1.00;;;;;;5075201;28;20378;-70
2023/04/25 10:01:07;;;;;;;3.60;2.30;;;9.70;1.00;;;;;;5069375;28;20436;-69
2023/04/25 10:03:41;;;;;;;4.30;2.70;;;9.70;1.00;;;;;;5064663;28;20433;-69
2023/04/25 10:06:18;;;;;;;12.10;3.50;;;9.80;1.00;;;;;;5073227;28;20449;-69
2023/04/25 10:08:45;;;;;;;6.37;2.57;;;10.00;1.00;;;;;;5054795;28;21124;-69
2023/04/25 10:11:14;;;;;;;11.80;2.57;;;10.00;1.00;;;;;;5053895;28;20381;-69
2023/04/25 10:13:40;;;;;;;13.13;2.70;;;9.80;1.00;;;;;;5055973;28;20423;-68
2023/04/25 10:16:06;;;;;;;4.93;2.77;;;9.60;1.00;;;;;;5054680;28;20433;-69
2023/04/25 10:18:32;;;;;;;7.77;3.03;;;9.50;1.00;;;;;;5062485;28;20480;-69
2023/04/25 10:21:04;;;;;;;8.13;2.70;;;9.20;1.00;;;;;;5074371;28;20164;-70
2023/04/25 10:23:31;;;;;;;9.00;3.40;;;8.80;1.00;;;;;;5074202;28;20450;-69
2023/04/25 10:25:58;;;;;;;5.83;2.33;;;8.70;1.00;;;;;;5073504;28;20416;-69
2023/04/25 10:28:24;;;;;;;4.50;2.30;;;8.70;1.00;;;;;;5059916;28;20449;-69
2023/04/25 10:31:07;;;;;;;4.57;2.50;;;9.20;1.00;;;;;;5058882;28;20461;-69
2023/04/25 10:33:39;;;;;;;4.47;2.17;;;9.70;1.00;;;;;;5074957;28;20948;-69
2023/04/25 10:36:17;;;;;;;5.20;2.73;;;10.10;1.00;;;;;;5060472;28;20408;-75
2023/04/25 10:38:44;;;;;;;8.57;2.30;;;10.00;1.00;;;;;;5054000;28;20882;-69
2023/04/25 10:41:12;;;;;;;6.07;2.50;;;9.60;1.00;;;;;;5054087;28;20403;-69
2023/04/25 10:43:43;;;;;;;5.47;2.10;;;9.20;1.00;;;;;;5059358;28;20419;-70
2023/04/25 10:46:30;;;;;;;10.83;2.67;;;9.00;1.00;;;;;;5074703;28;20373;-69
2023/04/25 10:48:59;;;;;;;2.67;2.00;;;8.90;1.00;;;;;;5073897;28;20472;-70
2023/04/25 10:51:25;;;;;;;7.90;3.10;;;9.00;1.00;;;;;;5072141;28;20424;-69
2023/04/25 10:54:08;;;;;;;5.50;2.70;;;9.20;1.00;;;;;;5075739;28;20859;-70
2023/04/25 10:56:40;;;;;;;9.47;3.40;;;9.50;1.00;;;;;;5073490;28;20395;-71
2023/04/25 10:59:09;;;;;;;4.77;2.30;;;9.60;1.00;;;;;;5074619;28;20387;-70
2023/04/25 11:01:46;;;;;;;6.20;2.80;;;10.10;1.00;;;;;;5073329;28;20740;-70
2023/04/25 11:04:35;;;;;;;2.33;1.63;;;10.80;1.00;;;;;;5074894;28;20428;-70
2023/04/25 11:07:14;;;;;;;2.73;1.90;;;11.60;1.00;;;;;;5073670;28;20435;-70
2023/04/25 11:09:40;;;;;;;5.43;1.60;;;12.10;1.00;;;;;;5074039;28;20531;-70
2023/04/25 11:12:08;;;;;;;4.77;1.67;;;12.60;1.00;;;;;;5072961;28;20417;-70
2023/04/25 11:14:35;;;;;;;2.77;1.93;;;12.50;1.00;;;;;;5073327;28;20426;-70
2023/04/25 11:17:02;;;;;;;3.77;1.93;;;12.00;1.00;;;;;;5073929;28;20709;-72
2023/04/25 11:19:28;;;;;;;4.10;1.60;;;11.80;1.00;;;;;;5047275;28;20742;-70
2023/04/25 11:22:00;;;;;;;4.30;2.10;;;11.30;1.00;;;;;;5053684;28;20376;-70
2023/04/25 11:24:30;;;;;;;3.97;1.70;;;10.50;1.00;;;;;;5035957;28;20771;-70
2023/04/25 11:27:04;;;;;;;3.30;1.70;;;9.60;1.00;;;;;;5053943;28;20389;-70
2023/04/25 11:29:31;;;;;;;3.20;1.70;;;9.30;1.00;;;;;;5053881;28;20977;-70
2023/04/25 11:31:57;;;;;;;3.30;1.70;;;9.10;1.00;;;;;;5052053;28;20455;-70
2023/04/25 11:34:25;;;;;;;2.50;1.83;;;9.20;1.00;;;;;;5063440;28;20411;-70
2023/04/25 11:36:54;;;;;;;4.47;2.10;;;9.40;1.00;;;;;;5073747;28;20424;-70
2023/04/25 11:39:20;;;;;;;2.17;1.77;;;9.70;1.00;;;;;;5073981;28;20436;-71
2023/04/25 11:41:47;;;;;;;5.33;2.20;;;10.50;1.00;;;;;;5072849;28;20393;-70
2023/04/25 11:44:15;;;;;;;6.87;1.63;;;11.10;1.00;;;;;;5073556;28;20387;-70
2023/04/25 11:46:42;;;;;;;6.93;2.23;;;11.40;1.00;;;;;;5072628;28;20928;-71
2023/04/25 11:49:08;;;;;;;5.57;2.07;;;12.10;1.00;;;;;;5073982;28;20820;-71
2023/04/25 11:51:45;;;;;;;4.23;1.60;;;12.90;1.00;;;;;;5071810;28;20990;-70
2023/04/25 11:54:12;;;;;;;7.53;2.23;;;13.40;1.00;;;;;;5072849;28;20404;-70
2023/04/25 11:56:43;;;;;;;5.43;1.90;;;13.00;1.00;;;;;;5074341;28;20483;-72
2023/04/25 11:59:09;;;;;;;2.60;1.63;;;12.90;1.00;;;;;;5073052;28;20404;-70
2023/04/25 12:01:37;;;;;;;2.90;1.40;;;12.80;1.00;;;;;;5074379;28;20424;-71
2023/04/25 12:04:23;;;;;;;5.60;2.30;;;12.00;1.00;;;;;;5077342;28;20455;-71
2023/04/25 12:06:52;;;;;;;7.23;2.40;;;11.50;1.00;;;;;;5077854;28;20864;-69
2023/04/25 12:09:21;;;;;;;4.73;2.50;;;10.60;1.00;;;;;;5076607;28;20514;-70
2023/04/25 12:11:56;;;;;;;4.60;2.10;;;10.10;1.00;;;;;;5076475;28;20400;-70
2023/04/25 12:14:27;;;;;;;2.90;1.70;;;9.60;1.00;;;;;;5076106;28;20510;-70
2023/04/25 12:16:57;;;;;;;4.93;2.27;;;9.30;1.00;;;;;;5077496;28;20893;-69
2023/04/25 12:19:23;;;;;;;13.97;2.50;;;9.20;1.00;;;;;;5077162;28;20398;-70
2023/04/25 12:21:49;;;;;;;3.53;1.90;;;9.10;1.00;;;;;;5074248;28;21355;-70
2023/04/25 12:24:18;;;;;;;9.23;2.20;;;9.10;1.00;;;;;;5076023;28;20180;-71
2023/04/25 12:27:07;;;;;;;3.30;2.63;;;9.50;1.00;;;;;;5077125;28;20409;-70
2023/04/25 12:29:34;;;;;;;8.97;2.63;;;10.30;1.00;;;;;;5064090;28;20641;-69
2023/04/25 12:32:01;;;;;;;7.33;2.60;;;10.30;1.00;;;;;;5075974;28;20426;-70
2023/04/25 12:34:27;;;;;;;5.40;2.60;;;9.90;1.00;;;;;;5076656;28;20401;-71
2023/04/25 12:36:54;;;;;;;3.07;1.97;;;9.70;1.00;;;;;;5076749;28;20898;-69
2023/04/25 12:39:23;;;;;;;11.77;2.67;;;9.50;1.00;;;;;;5076875;28;20400;-70
2023/04/25 12:41:49;;;;;;;8.30;2.87;;;9.50;1.00;;;;;;5074989;28;20424;-70
2023/04/25 12:44:15;;;;;;;9.53;2.60;;;9.40;1.00;;;;;;5076245;28;20394;-70
2023/04/25 12:46:41;;;;;;;2.20;2.00;;;9.40;1.00;;;;;;5076101;28;20538;-72
2023/04/25 12:49:08;;;;;;;7.47;2.70;;;10.10;1.00;;;;;;5076634;28;20467;-71
2023/04/25 12:51:37;;;;;;;10.07;2.50;;;10.80;1.00;;;;;;5075793;28;20728;-70
2023/04/25 12:54:04;;;;;;;7.90;2.73;;;11.00;1.00;;;;;;5076494;28;20452;-71
2023/04/25 12:56:31;;;;;;;4.00;2.60;;;10.90;1.00;;;;;;5075734;28;20402;-70
2023/04/25 12:58:57;;;;;;;8.17;2.57;;;10.40;1.00;;;;;;5076587;28;20772;-70
2023/04/25 13:01:23;;;;;;;6.33;2.53;;;9.80;1.00;;;;;;5075326;28;20923;-70
2023/04/25 13:03:49;;;;;;;7.37;2.60;;;9.40;1.00;;;;;;5075811;28;20411;-70
2023/04/25 13:06:16;;;;;;;5.53;2.23;;;9.30;1.00;;;;;;5076717;28;20483;-70
2023/04/25 13:08:42;;;;;;;10.30;2.63;;;9.10;1.00;;;;;;5076083;28;20190;-70
2023/04/25 13:11:08;;;;;;;8.80;2.73;;;9.20;1.00;;;;;;5073985;28;20427;-69
2023/04/25 13:13:34;;;;;;;6.10;2.90;;;9.20;1.00;;;;;;5058639;28;20436;-70
2023/04/25 13:16:04;;;;;;;5.50;1.87;;;9.90;1.00;;;;;;5075108;28;20171;-71
2023/04/25 13:18:30;;;;;;;4.20;2.70;;;10.80;1.00;;;;;;5075675;28;20424;-71
2023/04/25 13:21:02;;;;;;;7.43;2.20;;;11.50;1.00;;;;;;5057088;28;20382;-71
2023/04/25 13:23:29;;;;;;;7.13;2.67;;;11.80;1.00;;;;;;5058662;28;20440;-70